Time;durP1;ratioP1;P1;durP2;ratioP2;P2;SDS_P1;SDS_P2;PMS_P1;PMS_P2;Temp;Humidity;BMP_temperature;BMP_pressure;BME280_temperature;BME280_humidity;BME280_pressure;Samples;Min_cycle;Max_cycle;Signal;HPM_P1;HPM_P2
2023/05/13 00:00:34;;;;;;;8.40;3.75;;;;;;;15.42;38.74;100788.41;1612381;86;22481;-80
2023/05/13 00:03:40;;;;;;;6.78;3.52;;;;;;;15.51;38.45;100789.14;1644728;87;21292;-80
2023/05/13 00:06:45;;;;;;;8.85;3.70;;;;;;;15.35;38.81;100793.02;1645996;87;21215;-80
2023/05/13 00:09:51;;;;;;;9.33;4.30;;;;;;;15.28;38.83;100801.72;1645910;87;21899;-79
2023/05/13 00:12:57;;;;;;;9.50;4.10;;;;;;;15.26;38.65;100792.81;1645233;87;21775;-80
2023/05/13 00:15:56;;;;;;;17.23;5.55;;;;;;;15.33;38.38;100795.09;1645921;87;21293;-79
2023/05/13 00:19:01;;;;;;;10.55;4.47;;;;;;;15.24;38.39;100797.16;1645955;87;21503;-79
2023/05/13 00:22:01;;;;;;;12.25;4.80;;;;;;;14.97;38.74;100796.51;1646550;87;21300;-79
2023/05/13 00:25:07;;;;;;;9.35;4.75;;;;;;;15.09;38.62;100797.70;1644618;87;21216;-79
2023/05/13 00:28:13;;;;;;;8.05;4.62;;;;;;;15.06;38.63;100798.10;1645817;87;21209;-79
2023/05/13 00:31:19;;;;;;;6.92;5.15;;;;;;;14.88;39.13;100794.38;1645889;87;21264;-79
2023/05/13 00:34:25;;;;;;;11.03;4.72;;;;;;;15.10;38.63;100792.51;1645925;87;21254;-78
2023/05/13 00:37:31;;;;;;;20.35;5.10;;;;;;;15.15;38.71;100795.56;1646136;87;21501;-79
2023/05/13 00:40:38;;;;;;;9.85;5.20;;;;;;;14.79;39.43;100795.53;1645883;87;21217;-79
2023/05/13 00:43:44;;;;;;;12.58;4.65;;;;;;;14.85;39.20;100797.52;1645057;87;21269;-79
2023/05/13 00:46:50;;;;;;;13.08;4.97;;;;;;;14.83;39.23;100796.34;1645875;87;21209;-79
2023/05/13 00:49:56;;;;;;;13.38;5.40;;;;;;;14.78;39.25;100794.69;1634969;87;21216;-79
2023/05/13 00:53:01;;;;;;;9.73;5.28;;;;;;;14.67;39.28;100794.30;1639757;87;21248;-79
2023/05/13 00:56:06;;;;;;;11.15;5.08;;;;;;;14.67;39.64;100788.80;1634556;87;21248;-79
2023/05/13 00:59:12;;;;;;;10.28;5.37;;;;;;;14.66;39.64;100792.60;1640625;87;21205;-79
2023/05/13 01:02:44;;;;;;;12.58;5.42;;;;;;;14.55;39.83;100790.67;1635526;86;21268;-79
2023/05/13 01:06:10;;;;;;;10.58;5.47;;;;;;;14.41;40.08;100792.87;1632367;88;21282;-79
2023/05/13 01:09:23;;;;;;;11.30;5.33;;;;;;;14.53;40.01;100794.64;1632413;88;21218;-79
2023/05/13 01:12:44;;;;;;;8.78;4.45;;;;;;;14.59;39.73;100795.80;1631886;88;21234;-79
2023/05/13 01:15:44;;;;;;;;;;;;;;;14.67;39.59;100795.68;1603720;89;21809;-79
2023/05/13 01:18:42;;;;;;;11.48;4.85;;;;;;;14.71;39.65;100796.48;1616382;88;20221;-79
2023/05/13 01:21:29;;;;;;;11.33;4.97;;;;;;;14.66;39.86;100785.19;1641836;87;21228;-78
2023/05/13 01:24:22;;;;;;;11.63;4.35;;;;;;;14.64;39.99;100790.05;1640157;87;21245;-79
2023/05/13 01:27:27;;;;;;;12.75;4.97;;;;;;;14.66;39.69;100787.09;1627415;87;21253;-78
2023/05/13 01:30:33;;;;;;;10.85;4.55;;;;;;;14.56;39.78;100787.39;1628068;88;21222;-78
2023/05/13 01:33:39;;;;;;;6.75;3.92;;;;;;;14.52;40.06;100784.69;1626845;87;21226;-79
2023/05/13 01:36:45;;;;;;;7.62;4.05;;;;;;;14.68;39.71;100786.37;1626701;88;21233;-78
2023/05/13 01:39:52;;;;;;;14.95;4.33;;;;;;;14.57;39.76;100787.19;1626787;88;21564;-80
2023/05/13 01:42:57;;;;;;;9.68;3.98;;;;;;;14.44;40.15;100784.21;1627035;88;21281;-79
2023/05/13 01:45:59;;;;;;;18.42;4.00;;;;;;;14.30;40.34;100780.94;1628009;88;21796;-80
2023/05/13 01:48:50;;;;;;;9.58;3.85;;;;;;;14.35;40.34;100787.25;1609035;88;21222;-80
2023/05/13 01:51:37;;;;;;;10.13;3.47;;;;;;;14.34;40.34;100789.16;1628141;88;21226;-80
2023/05/13 01:54:29;;;;;;;9.53;4.65;;;;;;;14.31;40.36;100789.55;1626944;88;21222;-79
2023/05/13 01:57:36;;;;;;;14.93;4.53;;;;;;;14.33;40.52;100791.05;1627742;88;21246;-79
2023/05/13 02:00:43;;;;;;;7.20;3.85;;;;;;;14.30;40.42;100790.08;1627086;88;21268;-80
2023/05/13 02:03:49;;;;;;;7.85;3.52;;;;;;;14.47;40.23;100785.22;1627423;85;21799;-80
2023/05/13 02:06:56;;;;;;;13.00;4.15;;;;;;;14.54;40.16;100796.37;1627366;88;21854;-79
2023/05/13 02:10:01;;;;;;;8.13;3.85;;;;;;;14.64;40.04;100794.18;1627206;88;21228;-80
2023/05/13 02:13:07;;;;;;;8.55;3.35;;;;;;;14.50;40.17;100790.91;1626675;88;21248;-79
2023/05/13 02:16:14;;;;;;;12.70;4.35;;;;;;;14.48;40.24;100786.10;1627324;88;21767;-79
2023/05/13 02:19:19;;;;;;;10.72;4.22;;;;;;;14.41;40.38;100787.37;1627276;88;21208;-80
2023/05/13 02:22:24;;;;;;;13.00;3.95;;;;;;;14.56;40.24;100795.65;1627231;88;21216;-80
2023/05/13 02:25:31;;;;;;;9.10;4.12;;;;;;;14.82;39.92;100795.16;1626134;88;21244;-80
2023/05/13 02:28:37;;;;;;;9.63;4.55;;;;;;;15.00;39.74;100795.57;1626393;88;21236;-79
2023/05/13 02:31:36;;;;;;;9.65;4.05;;;;;;;15.33;39.23;100797.86;1627192;88;21264;-80
2023/05/13 02:34:43;;;;;;;9.73;4.25;;;;;;;15.44;39.11;100797.89;1626766;88;21216;-80
2023/05/13 02:37:50;;;;;;;5.75;3.95;;;;;;;15.59;38.91;100793.16;1627371;88;21204;-80
2023/05/13 02:40:56;;;;;;;11.18;4.05;;;;;;;15.85;38.60;100792.55;1627396;88;21217;-79
2023/05/13 02:44:00;;;;;;;11.12;4.08;;;;;;;16.03;38.26;100794.83;1626731;88;21275;-80
2023/05/13 02:47:07;;;;;;;12.15;3.80;;;;;;;15.90;38.38;100799.70;1627245;88;21734;-79
2023/05/13 02:50:14;;;;;;;6.92;3.80;;;;;;;16.35;37.67;100809.40;1627331;88;21257;-79
2023/05/13 02:53:20;;;;;;;7.80;4.08;;;;;;;16.43;37.64;100809.78;1626159;88;21197;-79
2023/05/13 02:56:27;;;;;;;6.40;3.60;;;;;;;16.85;36.92;100805.16;1626104;88;21212;-78
2023/05/13 02:59:32;;;;;;;11.20;4.35;;;;;;;17.06;36.66;100814.70;1626745;88;21272;-79
2023/05/13 03:02:38;;;;;;;16.80;4.60;;;;;;;17.50;36.06;100808.33;1626222;88;21216;-78
2023/05/13 03:05:44;;;;;;;8.15;3.67;;;;;;;17.69;35.89;100810.81;1627770;86;21213;-79
2023/05/13 03:08:50;;;;;;;9.80;3.83;;;;;;;17.90;35.71;100814.81;1628446;87;21192;-78
2023/05/13 03:11:57;;;;;;;12.73;3.95;;;;;;;18.30;35.48;100817.55;1627768;87;21268;-78
2023/05/13 03:15:02;;;;;;;8.75;3.95;;;;;;;18.62;35.16;100818.56;1626984;87;21240;-79
2023/05/13 03:18:08;;;;;;;8.35;3.70;;;;;;;18.89;35.04;100816.07;1627787;87;21193;-80
2023/05/13 03:21:14;;;;;;;12.70;3.33;;;;;;;19.09;34.66;100814.59;1627690;87;21212;-81
2023/05/13 03:24:19;;;;;;;11.38;2.90;;;;;;;19.44;34.30;100818.39;1627546;88;21228;-81
2023/05/13 03:27:26;;;;;;;13.85;4.22;;;;;;;19.68;34.02;100813.15;1627878;87;21216;-81
2023/05/13 03:30:31;;;;;;;8.65;3.67;;;;;;;20.15;33.40;100818.65;1626308;88;21244;-81
2023/05/13 03:33:40;;;;;;;20.92;4.05;;;;;;;20.27;33.24;100819.59;1628149;87;21835;-79
2023/05/13 03:36:46;;;;;;;14.38;4.03;;;;;;;20.18;33.70;100823.73;1626419;87;21854;-81
2023/05/13 03:39:52;;;;;;;8.25;3.90;;;;;;;20.49;33.43;100828.94;1626675;87;21220;-81
2023/05/13 03:42:59;;;;;;;13.05;4.17;;;;;;;20.63;33.31;100823.01;1627079;87;21771;-81
2023/05/13 03:46:06;;;;;;;7.55;3.83;;;;;;;21.30;32.88;100827.77;1627191;87;21256;-81
2023/05/13 03:49:12;;;;;;;6.20;3.20;;;;;;;21.46;32.65;100837.45;1627275;87;21767;-79
2023/05/13 03:52:20;;;;;;;5.45;3.00;;;;;;;21.38;32.61;100834.44;1628668;87;21221;-79
2023/05/13 03:55:26;;;;;;;13.65;3.47;;;;;;;21.48;32.43;100833.33;1628577;87;21387;-78
2023/05/13 03:58:33;;;;;;;6.83;3.62;;;;;;;21.17;32.88;100839.39;1629367;87;21220;-78
2023/05/13 04:01:38;;;;;;;10.78;3.20;;;;;;;21.42;32.58;100842.08;1627707;87;21205;-78
2023/05/13 04:04:45;;;;;;;7.17;3.27;;;;;;;21.97;31.93;100841.05;1627629;87;21212;-79
2023/05/13 04:07:51;;;;;;;5.87;3.30;;;;;;;22.05;32.00;100841.25;1627646;88;21267;-79
2023/05/13 04:10:56;;;;;;;8.33;3.45;;;;;;;22.36;31.75;100842.36;1627645;88;21195;-79
2023/05/13 04:14:02;;;;;;;5.60;3.42;;;;;;;22.64;31.24;100848.61;1627533;88;21220;-79
2023/05/13 04:17:07;;;;;;;13.70;3.35;;;;;;;22.44;31.95;100850.89;1626699;87;22537;-80
2023/05/13 04:20:15;;;;;;;13.35;3.10;;;;;;;22.98;30.84;100848.84;1627443;88;21216;-80
2023/05/13 04:23:21;;;;;;;5.17;2.90;;;;;;;23.18;30.22;100850.67;1628061;88;21231;-79
2023/05/13 04:26:26;;;;;;;9.00;3.20;;;;;;;23.26;30.44;100855.03;1627059;88;21267;-79
2023/05/13 04:29:25;;;;;;;13.93;3.85;;;;;;;23.35;29.78;100859.68;1627588;88;21292;-79
2023/05/13 04:32:30;;;;;;;9.48;3.25;;;;;;;23.18;30.20;100856.80;1627573;88;21220;-79
2023/05/13 04:35:37;;;;;;;7.15;2.98;;;;;;;23.27;30.02;100857.27;1627582;88;21220;-79
2023/05/13 04:38:42;;;;;;;11.20;3.47;;;;;;;23.48;30.28;100863.58;1627424;88;21892;-79
2023/05/13 04:41:49;;;;;;;8.63;3.12;;;;;;;23.46;29.69;100861.02;1627586;88;21766;-79
2023/05/13 04:44:56;;;;;;;14.55;3.65;;;;;;;23.16;29.61;100866.83;1627562;88;21239;-79
2023/05/13 04:48:02;;;;;;;10.63;4.40;;;;;;;23.21;30.12;100868.33;1627616;88;21271;-79
2023/05/13 04:51:08;;;;;;;10.50;3.95;;;;;;;21.76;31.96;100869.45;1627924;88;21223;-79
2023/05/13 04:54:15;;;;;;;4.37;3.00;;;;;;;21.80;31.95;100866.50;1627553;88;21366;-79
2023/05/13 04:57:20;;;;;;;12.55;3.92;;;;;;;22.05;32.87;100868.56;1626422;87;21361;-79
2023/05/13 05:00:25;;;;;;;9.60;3.75;;;;;;;22.06;32.12;100877.22;1626990;88;21246;-79
2023/05/13 05:03:30;;;;;;;7.70;3.60;;;;;;;22.12;32.28;100867.95;1627712;88;21275;-79
2023/05/13 05:06:35;;;;;;;7.45;3.58;;;;;;;22.30;32.41;100861.97;1627181;86;21228;-79
2023/05/13 05:09:42;;;;;;;10.63;4.20;;;;;;;22.63;32.24;100863.65;1627354;88;21225;-79
2023/05/13 05:12:49;;;;;;;5.80;2.98;;;;;;;22.83;31.04;100871.63;1627318;88;21220;-79
2023/05/13 05:15:55;;;;;;;8.00;3.30;;;;;;;22.89;31.28;100872.08;1626985;88;21304;-79
2023/05/13 05:19:00;;;;;;;9.68;4.03;;;;;;;23.04;31.34;100869.33;1627428;88;21264;-79
2023/05/13 05:21:59;;;;;;;15.63;3.35;;;;;;;23.02;30.83;100869.58;1626251;88;21751;-79
2023/05/13 05:24:50;;;;;;;8.03;4.25;;;;;;;23.17;31.46;100869.91;1627387;88;21272;-79
2023/05/13 05:27:36;;;;;;;9.35;3.95;;;;;;;23.23;32.02;100869.47;1626513;88;21248;-79
2023/05/13 05:30:29;;;;;;;12.23;3.83;;;;;;;23.46;31.27;100872.19;1627285;88;21224;-79
2023/05/13 05:33:37;;;;;;;10.25;3.70;;;;;;;23.68;31.85;100877.13;1628128;88;21704;-79
2023/05/13 05:36:42;;;;;;;10.40;4.10;;;;;;;23.81;30.30;100877.38;1627246;88;21248;-79
2023/05/13 05:39:48;;;;;;;7.62;4.00;;;;;;;23.76;30.27;100884.23;1627316;88;21231;-79
2023/05/13 05:42:56;;;;;;;9.55;3.58;;;;;;;23.78;30.26;100881.51;1626126;88;21224;-78
2023/05/13 05:46:02;;;;;;;7.60;3.20;;;;;;;23.73;30.93;100885.60;1626072;88;21304;-79
2023/05/13 05:49:07;;;;;;;7.75;3.75;;;;;;;24.43;29.57;100896.97;1626295;87;21201;-79
2023/05/13 05:52:15;;;;;;;10.03;4.28;;;;;;;24.73;29.51;100893.25;1627380;88;21215;-79
2023/05/13 05:55:21;;;;;;;8.30;4.53;;;;;;;24.84;29.54;100888.68;1627374;88;21212;-79
2023/05/13 05:58:27;;;;;;;14.58;4.58;;;;;;;24.78;30.01;100890.23;1626494;88;21220;-79
2023/05/13 06:01:35;;;;;;;13.70;5.05;;;;;;;24.97;29.54;100891.64;1626156;88;21232;-79
2023/05/13 06:04:40;;;;;;;11.12;4.70;;;;;;;24.54;30.15;100894.63;1626104;88;21268;-79
2023/05/13 06:07:47;;;;;;;11.28;4.53;;;;;;;24.98;29.52;100894.20;1628203;86;21284;-79
2023/05/13 06:10:55;;;;;;;10.93;4.70;;;;;;;24.58;30.23;100894.41;1627306;88;21232;-79
2023/05/13 06:14:01;;;;;;;9.13;4.40;;;;;;;24.90;30.22;100893.80;1627270;88;21767;-80
2023/05/13 06:17:07;;;;;;;15.88;4.47;;;;;;;25.30;29.50;100891.28;1626403;88;21914;-79
2023/05/13 06:20:00;;;;;;;12.55;4.17;;;;;;;25.36;29.33;100888.31;1627398;88;21189;-79
2023/05/13 06:23:06;;;;;;;15.65;4.00;;;;;;;25.42;28.97;100885.02;1627423;88;21246;-79
2023/05/13 06:26:12;;;;;;;13.40;4.05;;;;;;;25.56;28.77;100883.51;1627309;88;21213;-79
2023/05/13 06:29:17;;;;;;;11.15;3.55;;;;;;;25.51;28.28;100886.25;1626282;88;21248;-79
2023/05/13 06:32:22;;;;;;;9.25;3.17;;;;;;;25.63;28.26;100886.09;1627106;88;21256;-79
2023/05/13 06:35:28;;;;;;;13.10;3.70;;;;;;;25.62;27.97;100886.65;1627425;88;21224;-79
2023/05/13 06:38:33;;;;;;;10.63;3.60;;;;;;;25.72;28.16;100881.16;1626783;88;21811;-79
2023/05/13 06:41:38;;;;;;;7.35;3.20;;;;;;;25.83;27.77;100879.89;1627388;88;21216;-79
2023/05/13 06:44:47;;;;;;;10.50;3.67;;;;;;;26.06;27.11;100887.98;1627448;88;21201;-79
2023/05/13 06:47:54;;;;;;;6.47;2.83;;;;;;;26.17;26.54;100880.54;1626999;88;21920;-79
2023/05/13 06:51:01;;;;;;;7.83;3.00;;;;;;;26.12;26.13;100878.53;1627504;88;21252;-79
2023/05/13 06:54:06;;;;;;;6.55;3.00;;;;;;;26.07;24.92;100881.30;1627447;88;21759;-79
2023/05/13 06:57:11;;;;;;;10.35;2.98;;;;;;;25.61;25.78;100882.72;1627396;88;21326;-79
2023/05/13 07:00:22;;;;;;;4.47;2.52;;;;;;;26.12;24.70;100879.09;1626761;88;21291;-79
2023/05/13 07:03:26;;;;;;;5.33;2.37;;;;;;;26.18;26.01;100876.62;1626646;88;21291;-79
2023/05/13 07:06:31;;;;;;;5.42;2.95;;;;;;;26.25;25.07;100879.50;1627353;88;21200;-77
2023/05/13 07:09:38;;;;;;;4.67;2.35;;;;;;;25.90;25.10;100876.34;1634912;86;21245;-79
2023/05/13 07:12:43;;;;;;;10.85;2.65;;;;;;;26.27;24.98;100876.98;1640530;87;21221;-78
2023/05/13 07:15:49;;;;;;;7.22;2.08;;;;;;;26.55;25.21;100865.47;1640567;87;21205;-79
2023/05/13 07:18:54;;;;;;;6.50;2.30;;;;;;;26.59;23.85;100862.41;1646963;86;21257;-79
2023/05/13 07:22:00;;;;;;;11.33;1.92;;;;;;;26.59;22.92;100861.02;1661071;86;21208;-79
2023/05/13 07:25:06;;;;;;;5.40;2.20;;;;;;;26.77;22.70;100856.90;1652345;86;21250;-79
2023/05/13 07:28:11;;;;;;;7.12;2.58;;;;;;;26.94;22.60;100858.98;1643977;87;21241;-79
2023/05/13 07:31:17;;;;;;;2.75;1.70;;;;;;;26.99;22.55;100862.38;1644705;87;21220;-79
2023/05/13 07:34:22;;;;;;;3.75;2.00;;;;;;;27.19;22.14;100852.67;1644818;87;21288;-79
2023/05/13 07:37:29;;;;;;;4.67;2.17;;;;;;;27.44;21.06;100860.95;1645905;87;21213;-79
2023/05/13 07:40:35;;;;;;;4.53;1.92;;;;;;;27.47;20.80;100854.75;1645942;87;21173;-79
2023/05/13 07:43:40;;;;;;;7.58;2.00;;;;;;;26.98;22.30;100854.52;1645832;87;21201;-79
2023/05/13 07:46:47;;;;;;;7.08;2.37;;;;;;;27.05;21.10;100855.66;1645967;87;21331;-79
2023/05/13 07:49:53;;;;;;;4.08;1.57;;;;;;;27.17;21.87;100854.92;1644811;87;21292;-79
2023/05/13 07:52:53;;;;;;;1.97;1.57;;;;;;;27.38;21.92;100855.84;1646178;87;21217;-79
2023/05/13 07:55:58;;;;;;;7.97;2.08;;;;;;;27.50;21.31;100852.81;1645930;87;21446;-79
2023/05/13 07:59:05;;;;;;;8.20;2.27;;;;;;;27.70;21.03;100854.27;1645867;87;21201;-79
2023/05/13 08:02:10;;;;;;;6.58;1.65;;;;;;;27.21;21.40;100842.59;1645848;87;21253;-79
2023/05/13 08:05:17;;;;;;;7.20;2.45;;;;;;;27.21;22.24;100842.03;1644638;87;21280;-79
2023/05/13 08:08:22;;;;;;;7.37;1.57;;;;;;;27.30;21.45;100842.35;1645799;87;21213;-79
2023/05/13 08:11:28;;;;;;;8.65;1.65;;;;;;;27.76;20.80;100844.78;1633103;86;21261;-79
2023/05/13 08:14:34;;;;;;;7.33;1.65;;;;;;;27.21;21.21;100839.78;1631147;88;21222;-79
2023/05/13 08:17:39;;;;;;;5.85;2.05;;;;;;;27.17;21.69;100836.67;1632368;88;21222;-79
2023/05/13 08:20:45;;;;;;;3.30;1.80;;;;;;;27.33;20.55;100842.34;1631502;88;21274;-79
2023/05/13 08:23:52;;;;;;;8.05;2.05;;;;;;;27.63;20.99;100836.84;1632471;88;21222;-79
2023/05/13 08:26:57;;;;;;;6.28;1.90;;;;;;;27.49;21.52;100837.92;1632288;88;21225;-79
2023/05/13 08:30:03;;;;;;;5.97;2.08;;;;;;;27.71;20.89;100849.48;1631922;88;21262;-79
2023/05/13 08:33:09;;;;;;;2.80;1.60;;;;;;;27.57;20.66;100829.53;1641899;87;21275;-79
2023/05/13 08:36:16;;;;;;;3.75;1.65;;;;;;;27.53;21.72;100838.78;1644894;87;21264;-79
2023/05/13 08:39:21;;;;;;;4.05;1.90;;;;;;;27.59;21.73;100823.06;1646034;87;21224;-80
2023/05/13 08:42:26;;;;;;;3.17;2.20;;;;;;;27.95;21.58;100838.62;1645856;87;21267;-80
2023/05/13 08:45:32;;;;;;;2.45;1.82;;;;;;;28.14;20.49;100828.52;1646063;87;21219;-80
2023/05/13 08:48:38;;;;;;;7.97;2.10;;;;;;;28.09;21.39;100820.61;1645878;87;21227;-80
2023/05/13 08:51:43;;;;;;;7.03;2.20;;;;;;;27.82;22.37;100821.73;1645995;87;22502;-80
2023/05/13 08:54:48;;;;;;;10.95;2.33;;;;;;;28.12;21.52;100823.72;1644784;87;21222;-79
2023/05/13 08:57:54;;;;;;;3.70;2.08;;;;;;;28.10;21.03;100821.77;1648402;86;21214;-79
2023/05/13 09:00:55;;;;;;;7.65;2.40;;;;;;;28.34;21.27;100819.25;1644738;87;21242;-80
2023/05/13 09:04:10;;;;;;;5.03;1.92;;;;;;;28.30;20.62;100825.70;1645930;87;21262;-80
2023/05/13 09:07:16;;;;;;;11.40;2.50;;;;;;;28.05;21.10;100817.55;1646176;87;21230;-80
2023/05/13 09:10:22;;;;;;;6.62;2.58;;;;;;;28.17;19.91;100813.88;1647828;87;21785;-80
2023/05/13 09:13:28;;;;;;;16.37;2.62;;;;;;;28.29;19.11;100799.54;1646007;87;21222;-80
2023/05/13 09:16:35;;;;;;;5.80;2.85;;;;;;;28.27;19.74;100799.80;1631493;87;21202;-80
2023/05/13 09:19:41;;;;;;;3.85;2.42;;;;;;;28.55;19.72;100783.48;1645834;87;21838;-80
2023/05/13 09:22:57;;;;;;;4.37;2.55;;;;;;;28.39;19.92;100784.65;1655102;86;21210;-80
2023/05/13 09:26:03;;;;;;;8.30;2.50;;;;;;;28.71;20.15;100789.37;1658568;86;21229;-80
2023/05/13 09:29:32;;;;;;;8.88;3.42;;;;;;;28.96;19.17;100791.84;1658370;86;21214;-80
2023/05/13 09:32:39;;;;;;;4.20;2.37;;;;;;;28.66;20.09;100780.94;1658692;86;21760;-79
2023/05/13 09:35:42;;;;;;;4.67;2.85;;;;;;;28.33;19.29;100774.52;1657716;86;21348;-79
2023/05/13 09:38:37;;;;;;;5.78;3.00;;;;;;;29.00;19.15;100769.87;1657755;86;21221;-79
2023/05/13 09:41:44;;;;;;;5.33;3.22;;;;;;;29.08;19.40;100778.83;1645134;87;21211;-79
2023/05/13 09:44:52;;;;;;;12.68;3.20;;;;;;;28.94;19.67;100775.79;1645737;87;21270;-80
2023/05/13 09:47:58;;;;;;;7.12;3.40;;;;;;;28.84;19.75;100775.80;1646409;87;21247;-80
2023/05/13 09:51:05;;;;;;;7.87;3.00;;;;;;;29.00;19.04;100768.46;1645289;87;21245;-79
2023/05/13 09:54:13;;;;;;;5.53;3.47;;;;;;;28.97;19.60;100763.39;1646009;87;21199;-80
2023/05/13 09:57:20;;;;;;;5.53;2.95;;;;;;;28.97;18.55;100763.96;1646173;87;21328;-79
2023/05/13 10:00:26;;;;;;;7.28;3.40;;;;;;;28.94;19.76;100763.12;1645175;87;21238;-79
2023/05/13 10:03:34;;;;;;;13.30;3.45;;;;;;;29.07;19.17;100755.46;1646028;87;21259;-79
2023/05/13 10:06:40;;;;;;;5.37;3.30;;;;;;;29.30;19.29;100748.30;1645476;87;21242;-80
2023/05/13 10:09:46;;;;;;;6.60;3.25;;;;;;;29.34;20.05;100752.80;1644827;87;21270;-79
2023/05/13 10:12:52;;;;;;;5.22;3.20;;;;;;;29.48;20.08;100753.83;1647500;86;21288;-79
2023/05/13 10:16:05;;;;;;;8.13;3.60;;;;;;;29.60;19.52;100760.00;1647714;86;21204;-79
2023/05/13 10:19:12;;;;;;;8.85;3.80;;;;;;;29.19;19.05;100757.38;1646803;87;21185;-80
2023/05/13 10:22:18;;;;;;;5.80;3.47;;;;;;;29.20;19.13;100753.43;1644044;87;21248;-81
2023/05/13 10:25:30;;;;;;;6.00;3.47;;;;;;;29.03;19.55;100750.16;1647007;87;21205;-81
2023/05/13 10:28:36;;;;;;;7.08;3.27;;;;;;;29.03;20.05;100745.94;1647989;87;21261;-81
2023/05/13 10:31:41;;;;;;;7.45;3.52;;;;;;;29.07;19.61;100741.95;1644671;87;21264;-81
2023/05/13 10:34:48;;;;;;;13.60;3.08;;;;;;;28.68;19.28;100742.65;1646162;87;21249;-81
2023/05/13 10:38:28;;;;;;;6.20;3.80;;;;;;;29.18;19.82;100733.17;1645996;87;21244;-80
2023/05/13 10:41:50;;;;;;;6.65;3.20;;;;;;;29.16;18.81;100738.81;1652936;87;21216;-81
2023/05/13 10:45:00;;;;;;;6.90;3.20;;;;;;;29.30;18.26;100737.03;1621781;88;21207;-81
2023/05/13 10:48:14;;;;;;;6.72;3.67;;;;;;;29.67;18.81;100749.22;1619514;88;21763;-81
2023/05/13 10:51:23;;;;;;;10.40;2.92;;;;;;;29.39;18.44;100747.12;1574808;90;21329;-81
2023/05/13 10:54:30;;;;;;;9.60;2.67;;;;;;;29.20;18.79;100737.94;1615618;88;21539;-79
2023/05/13 10:57:42;;;;;;;7.83;3.00;;;;;;;29.09;18.39;100736.89;1605375;89;21348;-79
2023/05/13 11:00:51;;;;;;;5.53;3.08;;;;;;;28.92;18.54;100738.05;1621073;88;21259;-79
2023/05/13 11:04:02;;;;;;;4.73;3.00;;;;;;;28.13;18.94;100739.63;1612315;88;21217;-79
2023/05/13 11:07:10;;;;;;;7.30;3.25;;;;;;;28.85;18.33;100735.28;1622691;88;21271;-80
2023/05/13 11:10:32;;;;;;;4.10;2.77;;;;;;;29.24;19.19;100729.76;1611912;88;21805;-79
2023/05/13 11:13:44;;;;;;;8.13;2.85;;;;;;;29.01;19.49;100727.90;1617081;86;21244;-79
2023/05/13 11:16:57;;;;;;;4.47;2.62;;;;;;;28.99;19.14;100725.11;1636073;87;21196;-80
2023/05/13 11:20:02;;;;;;;15.08;3.35;;;;;;;28.92;19.27;100723.97;1636616;87;21224;-80
2023/05/13 11:23:08;;;;;;;10.82;3.58;;;;;;;28.96;19.14;100719.48;1615497;86;21252;-80
2023/05/13 11:26:20;;;;;;;7.37;2.70;;;;;;;28.72;19.47;100712.23;1649083;87;21768;-80
2023/05/13 11:29:43;;;;;;;5.78;2.98;;;;;;;29.21;19.50;100721.30;1621758;88;21232;-80
2023/05/13 11:33:11;;;;;;;5.00;2.50;;;;;;;28.98;19.13;100724.27;1648441;87;21253;-80
2023/05/13 11:36:12;;;;;;;4.60;2.55;;;;;;;28.82;19.36;100708.53;1649091;87;21193;-79
2023/05/13 11:39:25;;;;;;;5.42;2.75;;;;;;;29.00;19.72;100707.92;1621293;88;21213;-80
2023/05/13 11:42:32;;;;;;;7.08;2.25;;;;;;;29.05;19.47;100714.66;1649116;87;21229;-80
2023/05/13 11:45:39;;;;;;;6.55;2.67;;;;;;;28.99;19.47;100719.48;1649132;87;21213;-80
2023/05/13 11:48:46;;;;;;;12.40;2.72;;;;;;;29.08;19.86;100725.33;1621333;88;21209;-80
2023/05/13 11:51:52;;;;;;;4.75;2.55;;;;;;;29.04;19.63;100718.05;1648970;87;21257;-80
2023/05/13 11:54:59;;;;;;;4.83;2.45;;;;;;;28.43;19.89;100718.25;1649077;87;21233;-80
2023/05/13 11:58:04;;;;;;;8.68;2.17;;;;;;;28.76;19.99;100719.55;1621372;88;21223;-80
2023/05/13 12:01:11;;;;;;;6.90;2.33;;;;;;;28.50;19.75;100713.99;1648021;87;21296;-79
2023/05/13 12:04:17;;;;;;;4.35;2.05;;;;;;;28.35;19.75;100708.98;1647890;87;21268;-79
2023/05/13 12:07:32;;;;;;;4.67;2.10;;;;;;;27.92;20.64;100704.25;1620087;88;21225;-80
2023/05/13 12:10:38;;;;;;;15.20;2.70;;;;;;;27.85;20.91;100697.48;1647694;85;21189;-80
2023/05/13 12:13:44;;;;;;;10.43;2.58;;;;;;;27.99;21.84;100693.54;1644978;87;21260;-80
2023/05/13 12:16:51;;;;;;;9.63;2.37;;;;;;;28.24;21.34;100697.73;1647441;85;21221;-80
2023/05/13 12:20:18;;;;;;;6.10;2.20;;;;;;;28.45;21.03;100689.26;1645073;85;21288;-80
2023/05/13 12:23:24;;;;;;;4.22;2.27;;;;;;;28.34;20.46;100688.98;1638814;85;21229;-80
2023/05/13 12:26:22;;;;;;;5.83;2.25;;;;;;;28.62;20.57;100686.12;1622546;88;21221;-80
2023/05/13 12:29:27;;;;;;;6.15;2.42;;;;;;;28.88;20.55;100683.44;1617654;86;21208;-80
2023/05/13 12:32:33;;;;;;;3.92;2.30;;;;;;;28.95;20.56;100686.00;1648698;85;21273;-80
2023/05/13 12:35:40;;;;;;;4.47;2.35;;;;;;;29.19;19.80;100686.97;1618897;86;21233;-80
2023/05/13 12:38:45;;;;;;;27.45;2.72;;;;;;;29.40;19.99;100689.64;1619959;88;21257;-80
2023/05/13 12:41:58;;;;;;;7.83;2.20;;;;;;;29.20;20.57;100684.99;1647741;85;21224;-80
2023/05/13 12:45:04;;;;;;;5.92;2.12;;;;;;;29.30;20.79;100694.78;1620142;88;21273;-80
2023/05/13 12:48:10;;;;;;;5.65;2.05;;;;;;;29.06;19.94;100679.16;1649071;87;21180;-80
2023/05/13 12:51:16;;;;;;;3.35;2.12;;;;;;;28.58;20.49;100685.84;1634921;88;21225;-80
2023/05/13 12:54:22;;;;;;;3.90;2.02;;;;;;;28.69;20.65;100681.84;1648063;87;21240;-80
2023/05/13 12:57:27;;;;;;;7.87;2.00;;;;;;;28.57;20.30;100680.52;1634825;88;21270;-80
2023/05/13 13:00:28;;;;;;;5.00;2.20;;;;;;;28.50;19.95;100678.82;1648384;87;21219;-80
2023/05/13 13:03:34;;;;;;;10.88;2.50;;;;;;;28.73;20.10;100674.52;1634392;88;21280;-80
2023/05/13 13:06:39;;;;;;;13.50;2.30;;;;;;;28.81;19.83;100668.86;1649042;87;21244;-80
2023/05/13 13:09:46;;;;;;;10.78;2.10;;;;;;;29.02;20.22;100671.02;1633484;88;21848;-80
2023/05/13 13:12:52;;;;;;;10.90;2.52;;;;;;;28.98;19.71;100674.13;1650061;85;21248;-80
2023/05/13 13:15:58;;;;;;;18.82;2.62;;;;;;;28.94;19.73;100666.83;1647860;85;21239;-80
2023/05/13 13:19:03;;;;;;;15.72;2.52;;;;;;;28.98;20.50;100669.37;1619182;88;21274;-80
2023/05/13 13:22:09;;;;;;;4.85;2.25;;;;;;;28.97;20.29;100660.63;1648418;87;21236;-80
2023/05/13 13:25:16;;;;;;;7.78;2.58;;;;;;;29.03;19.79;100662.30;1651639;85;21816;-80
2023/05/13 13:28:22;;;;;;;6.92;2.30;;;;;;;28.84;19.69;100657.00;1674563;84;21793;-80
2023/05/13 13:31:31;;;;;;;5.85;2.47;;;;;;;29.08;20.17;100656.33;1664558;85;21356;-79
2023/05/13 13:34:36;;;;;;;8.45;2.72;;;;;;;29.02;20.01;100653.55;1670223;85;21239;-81
2023/05/13 13:37:41;;;;;;;5.45;2.42;;;;;;;28.77;19.97;100656.48;1665094;85;21253;-81
2023/05/13 13:40:48;;;;;;;4.70;2.40;;;;;;;29.01;19.53;100653.85;1651860;87;21254;-80
2023/05/13 13:43:55;;;;;;;8.03;2.42;;;;;;;28.91;18.91;100649.09;1679878;84;21277;-79
2023/05/13 13:47:01;;;;;;;4.28;2.37;;;;;;;28.92;19.05;100659.21;1652612;85;21230;-79
2023/05/13 13:50:07;;;;;;;5.42;2.40;;;;;;;28.71;18.89;100651.45;1651312;87;21234;-79
2023/05/13 13:53:13;;;;;;;7.75;2.27;;;;;;;28.76;19.98;100658.47;1651117;87;21282;-79
2023/05/13 13:56:19;;;;;;;2.98;2.12;;;;;;;28.62;19.36;100665.84;1651288;87;21226;-81
2023/05/13 13:59:25;;;;;;;7.60;2.30;;;;;;;28.71;19.88;100659.91;1651215;87;21265;-81
2023/05/13 14:02:25;;;;;;;6.00;2.20;;;;;;;28.60;20.03;100665.28;1647641;87;21346;-81
2023/05/13 14:05:31;;;;;;;2.70;2.22;;;;;;;28.66;19.39;100666.12;1624138;88;21256;-78
2023/05/13 14:08:37;;;;;;;10.90;2.60;;;;;;;28.73;20.77;100666.64;1626635;88;21257;-79
2023/05/13 14:11:43;;;;;;;8.20;2.17;;;;;;;28.85;19.60;100664.91;1625357;88;21272;-78
2023/05/13 14:14:43;;;;;;;6.00;2.27;;;;;;;28.82;19.38;100661.25;1624305;88;21280;-79
2023/05/13 14:17:48;;;;;;;4.33;2.30;;;;;;;28.58;19.54;100663.90;1602029;86;21319;-78
2023/05/13 14:20:55;;;;;;;5.75;2.08;;;;;;;28.43;19.92;100661.99;1570614;91;21339;-79